sensor_id;sensor_type;location;lat;lon;timestamp;P1;durP1;ratioP1;P2;durP2;ratioP2
30533;SDS011;73248;52.398;9.814;2024-03-02T00:00:25;19.02;;;8.73;;
30533;SDS011;73248;52.398;9.814;2024-03-02T00:02:52;14.70;;;7.22;;
30533;SDS011;73248;52.398;9.814;2024-03-02T00:05:18;16.60;;;8.02;;
30533;SDS011;73248;52.398;9.814;2024-03-02T00:07:46;15.55;;;8.15;;
30533;SDS011;73248;52.398;9.814;2024-03-02T00:10:20;17.15;;;8.88;;
30533;SDS011;73248;52.398;9.814;2024-03-02T00:13:02;17.95;;;8.38;;
30533;SDS011;73248;52.398;9.814;2024-03-02T00:17:56;14.70;;;7.88;;
30533;SDS011;73248;52.398;9.814;2024-03-02T00:20:24;15.17;;;8.87;;
30533;SDS011;73248;52.398;9.814;2024-03-02T00:23:03;16.17;;;8.77;;
30533;SDS011;73248;52.398;9.814;2024-03-02T00:25:49;15.43;;;8.53;;
30533;SDS011;73248;52.398;9.814;2024-03-02T00:31:01;16.00;;;9.07;;
30533;SDS011;73248;52.398;9.814;2024-03-02T00:33:27;18.17;;;8.88;;
30533;SDS011;73248;52.398;9.814;2024-03-02T00:35:59;14.68;;;8.60;;
30533;SDS011;73248;52.398;9.814;2024-03-02T00:38:25;14.32;;;8.02;;
30533;SDS011;73248;52.398;9.814;2024-03-02T00:40:51;15.23;;;9.13;;
30533;SDS011;73248;52.398;9.814;2024-03-02T00:46:09;15.50;;;8.88;;
30533;SDS011;73248;52.398;9.814;2024-03-02T00:48:37;16.48;;;8.80;;
30533;SDS011;73248;52.398;9.814;2024-03-02T00:51:03;21.27;;;9.75;;
30533;SDS011;73248;52.398;9.814;2024-03-02T00:53:32;19.02;;;9.63;;
30533;SDS011;73248;52.398;9.814;2024-03-02T00:55:58;17.50;;;8.82;;
30533;SDS011;73248;52.398;9.814;2024-03-02T00:58:25;19.03;;;9.20;;
30533;SDS011;73248;52.398;9.814;2024-03-02T01:00:51;18.08;;;10.07;;
30533;SDS011;73248;52.398;9.814;2024-03-02T01:03:17;15.13;;;9.23;;
30533;SDS011;73248;52.398;9.814;2024-03-02T01:05:44;23.20;;;12.23;;
30533;SDS011;73248;52.398;9.814;2024-03-02T01:08:10;20.13;;;10.98;;
30533;SDS011;73248;52.398;9.814;2024-03-02T01:10:36;20.70;;;11.43;;
30533;SDS011;73248;52.398;9.814;2024-03-02T01:13:01;26.38;;;13.52;;
30533;SDS011;73248;52.398;9.814;2024-03-02T01:15:27;23.73;;;12.90;;
30533;SDS011;73248;52.398;9.814;2024-03-02T01:17:53;25.85;;;11.77;;
30533;SDS011;73248;52.398;9.814;2024-03-02T01:20:18;21.80;;;11.80;;
30533;SDS011;73248;52.398;9.814;2024-03-02T01:22:44;22.63;;;11.48;;
30533;SDS011;73248;52.398;9.814;2024-03-02T01:25:09;19.10;;;10.30;;
30533;SDS011;73248;52.398;9.814;2024-03-02T01:27:35;26.23;;;12.25;;
30533;SDS011;73248;52.398;9.814;2024-03-02T01:30:01;26.77;;;14.32;;
30533;SDS011;73248;52.398;9.814;2024-03-02T01:32:26;26.25;;;12.75;;
30533;SDS011;73248;52.398;9.814;2024-03-02T01:34:52;20.50;;;11.52;;
30533;SDS011;73248;52.398;9.814;2024-03-02T01:37:18;23.90;;;11.27;;
30533;SDS011;73248;52.398;9.814;2024-03-02T01:39:43;26.77;;;12.10;;
30533;SDS011;73248;52.398;9.814;2024-03-02T01:42:09;24.77;;;12.27;;
30533;SDS011;73248;52.398;9.814;2024-03-02T01:44:35;22.25;;;12.23;;
30533;SDS011;73248;52.398;9.814;2024-03-02T01:47:01;25.50;;;12.38;;
30533;SDS011;73248;52.398;9.814;2024-03-02T01:49:27;22.77;;;11.63;;
30533;SDS011;73248;52.398;9.814;2024-03-02T01:51:52;24.23;;;12.50;;
30533;SDS011;73248;52.398;9.814;2024-03-02T01:54:18;22.20;;;11.80;;
30533;SDS011;73248;52.398;9.814;2024-03-02T01:56:44;25.10;;;11.98;;
30533;SDS011;73248;52.398;9.814;2024-03-02T01:59:10;26.88;;;12.88;;
30533;SDS011;73248;52.398;9.814;2024-03-02T02:01:36;27.60;;;12.88;;
30533;SDS011;73248;52.398;9.814;2024-03-02T02:04:01;25.63;;;12.45;;
30533;SDS011;73248;52.398;9.814;2024-03-02T02:06:27;23.65;;;12.30;;
30533;SDS011;73248;52.398;9.814;2024-03-02T02:08:53;20.90;;;11.52;;
30533;SDS011;73248;52.398;9.814;2024-03-02T02:11:18;23.70;;;12.50;;
30533;SDS011;73248;52.398;9.814;2024-03-02T02:13:44;23.60;;;12.02;;
30533;SDS011;73248;52.398;9.814;2024-03-02T02:16:09;23.13;;;12.95;;
30533;SDS011;73248;52.398;9.814;2024-03-02T02:18:35;25.60;;;12.27;;
30533;SDS011;73248;52.398;9.814;2024-03-02T02:21:02;25.73;;;12.15;;
30533;SDS011;73248;52.398;9.814;2024-03-02T02:23:28;29.52;;;13.05;;
30533;SDS011;73248;52.398;9.814;2024-03-02T02:25:57;28.85;;;13.35;;
30533;SDS011;73248;52.398;9.814;2024-03-02T02:28:22;26.83;;;13.38;;
30533;SDS011;73248;52.398;9.814;2024-03-02T02:30:48;26.80;;;13.32;;
30533;SDS011;73248;52.398;9.814;2024-03-02T02:33:14;26.42;;;13.73;;
30533;SDS011;73248;52.398;9.814;2024-03-02T02:35:39;25.58;;;12.63;;
30533;SDS011;73248;52.398;9.814;2024-03-02T02:38:05;29.38;;;13.73;;
30533;SDS011;73248;52.398;9.814;2024-03-02T02:40:31;26.52;;;13.23;;
30533;SDS011;73248;52.398;9.814;2024-03-02T02:42:57;29.48;;;12.93;;
30533;SDS011;73248;52.398;9.814;2024-03-02T02:45:24;31.67;;;13.77;;
30533;SDS011;73248;52.398;9.814;2024-03-02T02:47:50;25.95;;;13.43;;
30533;SDS011;73248;52.398;9.814;2024-03-02T02:50:15;31.55;;;14.75;;
30533;SDS011;73248;52.398;9.814;2024-03-02T02:52:41;29.95;;;14.98;;
30533;SDS011;73248;52.398;9.814;2024-03-02T02:55:08;33.17;;;14.63;;
30533;SDS011;73248;52.398;9.814;2024-03-02T02:57:35;29.85;;;14.75;;
30533;SDS011;73248;52.398;9.814;2024-03-02T03:00:04;31.20;;;14.38;;
30533;SDS011;73248;52.398;9.814;2024-03-02T03:02:39;30.05;;;14.40;;
30533;SDS011;73248;52.398;9.814;2024-03-02T03:05:08;27.92;;;14.35;;
30533;SDS011;73248;52.398;9.814;2024-03-02T03:10:02;29.10;;;14.68;;
30533;SDS011;73248;52.398;9.814;2024-03-02T03:12:29;30.08;;;13.95;;
30533;SDS011;73248;52.398;9.814;2024-03-02T03:14:56;27.17;;;13.18;;
30533;SDS011;73248;52.398;9.814;2024-03-02T03:17:22;30.05;;;11.95;;
30533;SDS011;73248;52.398;9.814;2024-03-02T03:19:48;25.15;;;11.88;;
30533;SDS011;73248;52.398;9.814;2024-03-02T03:22:14;24.45;;;12.05;;
30533;SDS011;73248;52.398;9.814;2024-03-02T03:24:39;28.60;;;13.30;;
30533;SDS011;73248;52.398;9.814;2024-03-02T03:27:05;28.83;;;12.43;;
30533;SDS011;73248;52.398;9.814;2024-03-02T03:29:31;27.02;;;12.23;;
30533;SDS011;73248;52.398;9.814;2024-03-02T03:31:56;26.70;;;13.20;;
30533;SDS011;73248;52.398;9.814;2024-03-02T03:34:22;25.73;;;12.07;;
30533;SDS011;73248;52.398;9.814;2024-03-02T03:36:47;25.65;;;11.93;;
30533;SDS011;73248;52.398;9.814;2024-03-02T03:39:13;22.92;;;11.95;;
30533;SDS011;73248;52.398;9.814;2024-03-02T03:41:40;24.33;;;11.55;;
30533;SDS011;73248;52.398;9.814;2024-03-02T03:44:06;23.90;;;11.82;;
30533;SDS011;73248;52.398;9.814;2024-03-02T03:46:31;25.55;;;11.07;;
30533;SDS011;73248;52.398;9.814;2024-03-02T03:48:57;25.45;;;12.85;;
30533;SDS011;73248;52.398;9.814;2024-03-02T03:51:22;21.23;;;11.15;;
30533;SDS011;73248;52.398;9.814;2024-03-02T03:53:48;23.75;;;11.45;;
30533;SDS011;73248;52.398;9.814;2024-03-02T03:56:14;26.92;;;12.50;;
30533;SDS011;73248;52.398;9.814;2024-03-02T03:58:39;27.35;;;13.07;;
30533;SDS011;73248;52.398;9.814;2024-03-02T04:01:05;28.55;;;12.88;;
30533;SDS011;73248;52.398;9.814;2024-03-02T04:03:30;27.60;;;13.55;;
30533;SDS011;73248;52.398;9.814;2024-03-02T04:05:56;26.10;;;12.20;;
30533;SDS011;73248;52.398;9.814;2024-03-02T04:08:22;29.25;;;12.65;;
30533;SDS011;73248;52.398;9.814;2024-03-02T04:10:47;30.25;;;13.85;;
30533;SDS011;73248;52.398;9.814;2024-03-02T04:13:16;26.92;;;12.65;;
30533;SDS011;73248;52.398;9.814;2024-03-02T04:15:42;24.05;;;13.15;;
30533;SDS011;73248;52.398;9.814;2024-03-02T04:18:07;28.00;;;13.15;;
30533;SDS011;73248;52.398;9.814;2024-03-02T04:20:33;32.28;;;12.88;;
30533;SDS011;73248;52.398;9.814;2024-03-02T04:22:58;27.55;;;12.95;;
30533;SDS011;73248;52.398;9.814;2024-03-02T04:25:24;27.88;;;13.20;;
30533;SDS011;73248;52.398;9.814;2024-03-02T04:27:49;30.65;;;14.23;;
30533;SDS011;73248;52.398;9.814;2024-03-02T04:30:15;25.35;;;12.82;;
30533;SDS011;73248;52.398;9.814;2024-03-02T04:32:41;26.55;;;13.63;;
30533;SDS011;73248;52.398;9.814;2024-03-02T04:35:07;29.02;;;13.43;;
30533;SDS011;73248;52.398;9.814;2024-03-02T04:37:35;26.52;;;12.88;;
30533;SDS011;73248;52.398;9.814;2024-03-02T04:40:00;27.10;;;13.38;;
30533;SDS011;73248;52.398;9.814;2024-03-02T04:42:26;27.23;;;13.68;;
30533;SDS011;73248;52.398;9.814;2024-03-02T04:44:52;25.58;;;12.48;;
30533;SDS011;73248;52.398;9.814;2024-03-02T04:47:17;30.05;;;12.80;;
30533;SDS011;73248;52.398;9.814;2024-03-02T04:49:43;34.38;;;14.73;;
30533;SDS011;73248;52.398;9.814;2024-03-02T04:52:08;27.73;;;13.23;;
30533;SDS011;73248;52.398;9.814;2024-03-02T04:54:34;25.98;;;13.07;;
30533;SDS011;73248;52.398;9.814;2024-03-02T04:57:20;28.20;;;13.82;;
30533;SDS011;73248;52.398;9.814;2024-03-02T04:59:45;29.38;;;13.45;;
30533;SDS011;73248;52.398;9.814;2024-03-02T05:02:11;31.75;;;13.50;;
30533;SDS011;73248;52.398;9.814;2024-03-02T05:04:39;31.70;;;14.05;;
30533;SDS011;73248;52.398;9.814;2024-03-02T05:07:05;32.45;;;14.95;;
30533;SDS011;73248;52.398;9.814;2024-03-02T05:09:30;27.33;;;13.27;;
30533;SDS011;73248;52.398;9.814;2024-03-02T05:11:57;28.08;;;13.10;;
30533;SDS011;73248;52.398;9.814;2024-03-02T05:14:37;28.77;;;14.38;;
30533;SDS011;73248;52.398;9.814;2024-03-02T05:17:03;31.35;;;14.50;;
30533;SDS011;73248;52.398;9.814;2024-03-02T05:19:29;29.80;;;13.73;;
30533;SDS011;73248;52.398;9.814;2024-03-02T05:21:54;31.58;;;13.25;;
30533;SDS011;73248;52.398;9.814;2024-03-02T05:24:20;31.83;;;14.38;;
30533;SDS011;73248;52.398;9.814;2024-03-02T05:26:46;33.08;;;14.13;;
30533;SDS011;73248;52.398;9.814;2024-03-02T05:29:11;32.72;;;14.02;;
30533;SDS011;73248;52.398;9.814;2024-03-02T05:31:37;28.88;;;13.65;;
30533;SDS011;73248;52.398;9.814;2024-03-02T05:34:02;31.52;;;13.73;;
30533;SDS011;73248;52.398;9.814;2024-03-02T05:36:28;32.13;;;14.70;;
30533;SDS011;73248;52.398;9.814;2024-03-02T05:38:54;34.53;;;15.15;;
30533;SDS011;73248;52.398;9.814;2024-03-02T05:41:19;32.22;;;14.80;;
30533;SDS011;73248;52.398;9.814;2024-03-02T05:43:45;34.53;;;15.35;;
30533;SDS011;73248;52.398;9.814;2024-03-02T05:46:11;32.08;;;15.18;;
30533;SDS011;73248;52.398;9.814;2024-03-02T05:48:37;31.25;;;15.23;;
30533;SDS011;73248;52.398;9.814;2024-03-02T05:51:02;36.03;;;15.18;;
30533;SDS011;73248;52.398;9.814;2024-03-02T05:53:28;36.85;;;16.58;;
30533;SDS011;73248;52.398;9.814;2024-03-02T05:55:54;31.83;;;14.90;;
30533;SDS011;73248;52.398;9.814;2024-03-02T05:58:20;33.15;;;15.30;;
30533;SDS011;73248;52.398;9.814;2024-03-02T06:00:59;34.60;;;15.38;;
30533;SDS011;73248;52.398;9.814;2024-03-02T06:03:24;38.92;;;16.27;;
30533;SDS011;73248;52.398;9.814;2024-03-02T06:05:50;33.15;;;16.40;;
30533;SDS011;73248;52.398;9.814;2024-03-02T06:08:16;38.58;;;16.98;;
30533;SDS011;73248;52.398;9.814;2024-03-02T06:10:43;36.78;;;17.10;;
30533;SDS011;73248;52.398;9.814;2024-03-02T06:13:08;36.78;;;15.95;;
30533;SDS011;73248;52.398;9.814;2024-03-02T06:15:34;31.40;;;16.02;;
30533;SDS011;73248;52.398;9.814;2024-03-02T06:18:01;34.30;;;15.15;;
30533;SDS011;73248;52.398;9.814;2024-03-02T06:20:26;35.15;;;15.98;;
30533;SDS011;73248;52.398;9.814;2024-03-02T06:22:52;41.72;;;16.35;;
30533;SDS011;73248;52.398;9.814;2024-03-02T06:25:17;39.28;;;16.40;;
30533;SDS011;73248;52.398;9.814;2024-03-02T06:27:43;35.28;;;14.88;;
30533;SDS011;73248;52.398;9.814;2024-03-02T06:30:09;36.13;;;17.05;;
30533;SDS011;73248;52.398;9.814;2024-03-02T06:32:35;32.88;;;16.13;;
30533;SDS011;73248;52.398;9.814;2024-03-02T06:35:00;34.67;;;16.10;;
30533;SDS011;73248;52.398;9.814;2024-03-02T06:37:26;33.72;;;15.80;;
30533;SDS011;73248;52.398;9.814;2024-03-02T06:39:51;37.72;;;16.33;;
30533;SDS011;73248;52.398;9.814;2024-03-02T06:42:17;36.08;;;16.38;;
30533;SDS011;73248;52.398;9.814;2024-03-02T06:44:43;34.85;;;16.35;;
30533;SDS011;73248;52.398;9.814;2024-03-02T06:47:08;35.42;;;16.85;;
30533;SDS011;73248;52.398;9.814;2024-03-02T06:49:34;42.45;;;17.90;;
30533;SDS011;73248;52.398;9.814;2024-03-02T06:52:00;41.30;;;18.00;;
30533;SDS011;73248;52.398;9.814;2024-03-02T06:54:25;37.97;;;17.90;;
30533;SDS011;73248;52.398;9.814;2024-03-02T06:56:53;38.75;;;17.20;;
30533;SDS011;73248;52.398;9.814;2024-03-02T06:59:18;37.42;;;17.88;;
30533;SDS011;73248;52.398;9.814;2024-03-02T07:01:44;42.40;;;17.90;;
30533;SDS011;73248;52.398;9.814;2024-03-02T07:04:09;37.15;;;18.08;;
30533;SDS011;73248;52.398;9.814;2024-03-02T07:06:35;39.20;;;18.35;;
30533;SDS011;73248;52.398;9.814;2024-03-02T07:09:00;33.88;;;16.95;;
30533;SDS011;73248;52.398;9.814;2024-03-02T07:11:26;43.15;;;19.27;;
30533;SDS011;73248;52.398;9.814;2024-03-02T07:13:51;44.92;;;19.00;;
30533;SDS011;73248;52.398;9.814;2024-03-02T07:16:17;37.72;;;17.30;;
30533;SDS011;73248;52.398;9.814;2024-03-02T07:18:57;38.53;;;17.25;;
30533;SDS011;73248;52.398;9.814;2024-03-02T07:21:24;39.95;;;18.45;;
30533;SDS011;73248;52.398;9.814;2024-03-02T07:23:50;41.28;;;17.90;;
30533;SDS011;73248;52.398;9.814;2024-03-02T07:26:15;40.80;;;17.05;;
30533;SDS011;73248;52.398;9.814;2024-03-02T07:28:43;37.00;;;17.60;;
30533;SDS011;73248;52.398;9.814;2024-03-02T07:31:09;36.00;;;17.17;;
30533;SDS011;73248;52.398;9.814;2024-03-02T07:33:35;37.47;;;17.30;;
30533;SDS011;73248;52.398;9.814;2024-03-02T07:36:00;36.67;;;16.35;;
30533;SDS011;73248;52.398;9.814;2024-03-02T07:38:27;36.88;;;17.77;;
30533;SDS011;73248;52.398;9.814;2024-03-02T07:40:53;34.70;;;16.23;;
30533;SDS011;73248;52.398;9.814;2024-03-02T07:43:19;36.90;;;16.55;;
30533;SDS011;73248;52.398;9.814;2024-03-02T07:45:45;37.75;;;18.25;;
30533;SDS011;73248;52.398;9.814;2024-03-02T07:48:11;37.28;;;16.10;;
30533;SDS011;73248;52.398;9.814;2024-03-02T07:50:37;32.30;;;16.27;;
30533;SDS011;73248;52.398;9.814;2024-03-02T07:53:04;34.80;;;16.48;;
30533;SDS011;73248;52.398;9.814;2024-03-02T07:55:30;39.35;;;16.95;;
30533;SDS011;73248;52.398;9.814;2024-03-02T07:57:58;32.05;;;15.30;;
30533;SDS011;73248;52.398;9.814;2024-03-02T08:00:25;30.90;;;15.05;;
30533;SDS011;73248;52.398;9.814;2024-03-02T08:02:52;36.30;;;17.52;;
30533;SDS011;73248;52.398;9.814;2024-03-02T08:05:18;34.97;;;16.20;;
30533;SDS011;73248;52.398;9.814;2024-03-02T08:07:44;33.00;;;17.17;;
30533;SDS011;73248;52.398;9.814;2024-03-02T08:10:10;34.95;;;16.15;;
30533;SDS011;73248;52.398;9.814;2024-03-02T08:12:36;31.60;;;15.98;;
30533;SDS011;73248;52.398;9.814;2024-03-02T08:15:02;32.85;;;15.65;;
30533;SDS011;73248;52.398;9.814;2024-03-02T08:17:29;32.85;;;15.32;;
30533;SDS011;73248;52.398;9.814;2024-03-02T08:19:54;36.88;;;16.83;;
30533;SDS011;73248;52.398;9.814;2024-03-02T08:22:20;28.98;;;15.15;;
30533;SDS011;73248;52.398;9.814;2024-03-02T08:24:46;31.83;;;14.48;;
30533;SDS011;73248;52.398;9.814;2024-03-02T08:27:12;31.65;;;14.73;;
30533;SDS011;73248;52.398;9.814;2024-03-02T08:29:37;34.42;;;16.65;;
30533;SDS011;73248;52.398;9.814;2024-03-02T08:32:04;34.95;;;14.55;;
30533;SDS011;73248;52.398;9.814;2024-03-02T08:34:30;30.33;;;14.93;;
30533;SDS011;73248;52.398;9.814;2024-03-02T08:36:56;31.35;;;15.15;;
30533;SDS011;73248;52.398;9.814;2024-03-02T08:39:21;29.20;;;13.82;;
30533;SDS011;73248;52.398;9.814;2024-03-02T08:41:47;28.05;;;14.80;;
30533;SDS011;73248;52.398;9.814;2024-03-02T08:44:13;26.80;;;13.73;;
30533;SDS011;73248;52.398;9.814;2024-03-02T08:46:39;31.52;;;14.63;;
30533;SDS011;73248;52.398;9.814;2024-03-02T08:49:05;34.47;;;15.20;;
30533;SDS011;73248;52.398;9.814;2024-03-02T08:51:31;29.13;;;13.48;;
30533;SDS011;73248;52.398;9.814;2024-03-02T08:53:57;25.70;;;13.00;;
30533;SDS011;73248;52.398;9.814;2024-03-02T08:56:24;26.08;;;12.45;;
30533;SDS011;73248;52.398;9.814;2024-03-02T08:58:50;24.80;;;12.32;;
30533;SDS011;73248;52.398;9.814;2024-03-02T09:01:17;26.33;;;12.23;;
30533;SDS011;73248;52.398;9.814;2024-03-02T09:03:43;23.05;;;12.25;;
30533;SDS011;73248;52.398;9.814;2024-03-02T09:06:12;25.45;;;12.43;;
30533;SDS011;73248;52.398;9.814;2024-03-02T09:08:38;27.27;;;13.15;;
30533;SDS011;73248;52.398;9.814;2024-03-02T09:11:05;23.25;;;11.75;;
30533;SDS011;73248;52.398;9.814;2024-03-02T09:13:31;26.33;;;12.25;;
30533;SDS011;73248;52.398;9.814;2024-03-02T09:15:57;25.48;;;11.75;;
30533;SDS011;73248;52.398;9.814;2024-03-02T09:18:22;28.75;;;12.13;;
30533;SDS011;73248;52.398;9.814;2024-03-02T09:20:48;26.60;;;11.93;;
30533;SDS011;73248;52.398;9.814;2024-03-02T09:23:14;22.80;;;11.38;;
30533;SDS011;73248;52.398;9.814;2024-03-02T09:25:39;23.77;;;11.02;;
30533;SDS011;73248;52.398;9.814;2024-03-02T09:28:05;20.23;;;11.13;;
30533;SDS011;73248;52.398;9.814;2024-03-02T09:30:32;23.42;;;11.38;;
30533;SDS011;73248;52.398;9.814;2024-03-02T09:32:57;21.85;;;11.35;;
30533;SDS011;73248;52.398;9.814;2024-03-02T09:35:23;22.67;;;11.60;;
30533;SDS011;73248;52.398;9.814;2024-03-02T09:37:49;21.52;;;9.88;;
30533;SDS011;73248;52.398;9.814;2024-03-02T09:40:14;24.95;;;10.40;;
30533;SDS011;73248;52.398;9.814;2024-03-02T09:42:41;23.48;;;9.48;;
30533;SDS011;73248;52.398;9.814;2024-03-02T09:45:08;22.50;;;9.77;;
30533;SDS011;73248;52.398;9.814;2024-03-02T09:47:34;21.10;;;10.35;;
30533;SDS011;73248;52.398;9.814;2024-03-02T09:50:00;17.92;;;9.75;;
30533;SDS011;73248;52.398;9.814;2024-03-02T09:52:25;20.45;;;9.55;;
30533;SDS011;73248;52.398;9.814;2024-03-02T09:54:51;19.58;;;10.05;;
30533;SDS011;73248;52.398;9.814;2024-03-02T09:57:17;17.48;;;8.73;;
30533;SDS011;73248;52.398;9.814;2024-03-02T09:59:43;20.85;;;9.85;;
30533;SDS011;73248;52.398;9.814;2024-03-02T10:02:10;20.10;;;9.55;;
30533;SDS011;73248;52.398;9.814;2024-03-02T10:04:35;17.48;;;8.57;;
30533;SDS011;73248;52.398;9.814;2024-03-02T10:07:19;16.83;;;8.48;;
30533;SDS011;73248;52.398;9.814;2024-03-02T10:09:45;16.35;;;8.75;;
30533;SDS011;73248;52.398;9.814;2024-03-02T10:12:13;23.33;;;9.75;;
30533;SDS011;73248;52.398;9.814;2024-03-02T10:14:40;18.17;;;8.65;;
30533;SDS011;73248;52.398;9.814;2024-03-02T10:17:07;21.23;;;9.98;;
30533;SDS011;73248;52.398;9.814;2024-03-02T10:19:34;23.48;;;9.45;;
30533;SDS011;73248;52.398;9.814;2024-03-02T10:22:02;21.17;;;9.35;;
30533;SDS011;73248;52.398;9.814;2024-03-02T10:24:36;28.27;;;10.07;;
30533;SDS011;73248;52.398;9.814;2024-03-02T10:27:16;19.67;;;9.95;;
30533;SDS011;73248;52.398;9.814;2024-03-02T10:29:45;17.47;;;9.27;;
30533;SDS011;73248;52.398;9.814;2024-03-02T10:32:11;18.60;;;8.80;;
30533;SDS011;73248;52.398;9.814;2024-03-02T10:34:39;17.38;;;8.95;;
30533;SDS011;73248;52.398;9.814;2024-03-02T10:37:06;17.48;;;9.20;;
30533;SDS011;73248;52.398;9.814;2024-03-02T10:39:35;17.98;;;8.73;;
30533;SDS011;73248;52.398;9.814;2024-03-02T10:42:01;17.65;;;8.65;;
30533;SDS011;73248;52.398;9.814;2024-03-02T10:44:28;18.73;;;8.63;;
30533;SDS011;73248;52.398;9.814;2024-03-02T10:46:55;16.83;;;8.65;;
30533;SDS011;73248;52.398;9.814;2024-03-02T10:49:22;16.50;;;8.57;;
30533;SDS011;73248;52.398;9.814;2024-03-02T10:51:49;14.15;;;7.88;;
30533;SDS011;73248;52.398;9.814;2024-03-02T10:54:14;14.57;;;7.50;;
30533;SDS011;73248;52.398;9.814;2024-03-02T10:56:40;14.73;;;8.05;;
30533;SDS011;73248;52.398;9.814;2024-03-02T11:01:58;11.98;;;6.88;;
30533;SDS011;73248;52.398;9.814;2024-03-02T11:04:25;16.23;;;7.15;;
30533;SDS011;73248;52.398;9.814;2024-03-02T11:06:52;11.95;;;6.35;;
30533;SDS011;73248;52.398;9.814;2024-03-02T11:09:28;9.90;;;6.18;;
30533;SDS011;73248;52.398;9.814;2024-03-02T11:12:03;12.48;;;6.78;;
30533;SDS011;73248;52.398;9.814;2024-03-02T11:14:37;34.25;;;6.85;;
30533;SDS011;73248;52.398;9.814;2024-03-02T11:17:09;12.63;;;6.30;;
30533;SDS011;73248;52.398;9.814;2024-03-02T11:19:39;13.10;;;6.20;;
30533;SDS011;73248;52.398;9.814;2024-03-02T11:22:06;12.32;;;5.75;;
30533;SDS011;73248;52.398;9.814;2024-03-02T11:24:33;11.82;;;5.88;;
30533;SDS011;73248;52.398;9.814;2024-03-02T11:26:59;11.27;;;5.40;;
30533;SDS011;73248;52.398;9.814;2024-03-02T11:32:04;17.45;;;5.10;;
30533;SDS011;73248;52.398;9.814;2024-03-02T11:34:46;9.07;;;4.93;;
30533;SDS011;73248;52.398;9.814;2024-03-02T11:37:14;10.13;;;5.05;;
30533;SDS011;73248;52.398;9.814;2024-03-02T11:39:42;11.35;;;5.28;;
30533;SDS011;73248;52.398;9.814;2024-03-02T11:42:12;13.15;;;5.38;;
30533;SDS011;73248;52.398;9.814;2024-03-02T11:44:39;11.20;;;5.65;;
30533;SDS011;73248;52.398;9.814;2024-03-02T11:47:16;11.75;;;5.78;;
30533;SDS011;73248;52.398;9.814;2024-03-02T11:49:46;11.13;;;4.90;;
30533;SDS011;73248;52.398;9.814;2024-03-02T11:52:16;9.68;;;4.75;;
30533;SDS011;73248;52.398;9.814;2024-03-02T11:54:44;7.63;;;4.80;;
30533;SDS011;73248;52.398;9.814;2024-03-02T11:57:22;10.73;;;4.60;;
30533;SDS011;73248;52.398;9.814;2024-03-02T11:59:49;12.30;;;5.97;;
30533;SDS011;73248;52.398;9.814;2024-03-02T12:02:15;11.13;;;5.28;;
30533;SDS011;73248;52.398;9.814;2024-03-02T12:04:45;9.82;;;5.45;;
30533;SDS011;73248;52.398;9.814;2024-03-02T12:07:20;11.80;;;5.93;;
30533;SDS011;73248;52.398;9.814;2024-03-02T12:09:47;12.38;;;6.00;;
30533;SDS011;73248;52.398;9.814;2024-03-02T12:12:13;13.18;;;5.65;;
30533;SDS011;73248;52.398;9.814;2024-03-02T12:14:50;10.98;;;5.63;;
30533;SDS011;73248;52.398;9.814;2024-03-02T12:17:17;11.57;;;5.40;;
30533;SDS011;73248;52.398;9.814;2024-03-02T12:19:42;10.70;;;5.85;;
30533;SDS011;73248;52.398;9.814;2024-03-02T12:22:09;9.25;;;5.30;;
30533;SDS011;73248;52.398;9.814;2024-03-02T12:24:34;9.55;;;5.53;;
30533;SDS011;73248;52.398;9.814;2024-03-02T12:27:02;10.00;;;5.10;;
30533;SDS011;73248;52.398;9.814;2024-03-02T12:29:28;9.98;;;5.03;;
30533;SDS011;73248;52.398;9.814;2024-03-02T12:31:54;8.38;;;4.70;;
30533;SDS011;73248;52.398;9.814;2024-03-02T12:34:20;10.68;;;5.72;;
30533;SDS011;73248;52.398;9.814;2024-03-02T12:36:47;8.98;;;5.13;;
30533;SDS011;73248;52.398;9.814;2024-03-02T12:39:15;7.50;;;4.88;;
30533;SDS011;73248;52.398;9.814;2024-03-02T12:41:41;7.97;;;4.40;;
30533;SDS011;73248;52.398;9.814;2024-03-02T12:44:07;9.15;;;5.07;;
30533;SDS011;73248;52.398;9.814;2024-03-02T12:46:33;6.63;;;4.03;;
30533;SDS011;73248;52.398;9.814;2024-03-02T12:49:07;6.13;;;3.10;;
30533;SDS011;73248;52.398;9.814;2024-03-02T12:51:40;4.82;;;2.83;;
30533;SDS011;73248;52.398;9.814;2024-03-02T12:54:09;7.28;;;3.20;;
30533;SDS011;73248;52.398;9.814;2024-03-02T12:56:35;5.90;;;3.35;;
30533;SDS011;73248;52.398;9.814;2024-03-02T12:59:05;6.40;;;3.53;;
30533;SDS011;73248;52.398;9.814;2024-03-02T13:01:31;5.05;;;3.38;;
30533;SDS011;73248;52.398;9.814;2024-03-02T13:03:57;8.32;;;4.53;;
30533;SDS011;73248;52.398;9.814;2024-03-02T13:06:24;8.43;;;4.03;;
30533;SDS011;73248;52.398;9.814;2024-03-02T13:08:54;7.82;;;4.20;;
30533;SDS011;73248;52.398;9.814;2024-03-02T13:11:20;6.22;;;3.92;;
30533;SDS011;73248;52.398;9.814;2024-03-02T13:13:48;5.88;;;3.63;;
30533;SDS011;73248;52.398;9.814;2024-03-02T13:16:14;5.82;;;3.72;;
30533;SDS011;73248;52.398;9.814;2024-03-02T13:18:41;6.18;;;3.40;;
30533;SDS011;73248;52.398;9.814;2024-03-02T13:21:09;6.40;;;4.05;;
30533;SDS011;73248;52.398;9.814;2024-03-02T13:23:35;10.02;;;4.00;;
30533;SDS011;73248;52.398;9.814;2024-03-02T13:26:00;5.03;;;3.42;;
30533;SDS011;73248;52.398;9.814;2024-03-02T13:28:26;6.70;;;3.42;;
30533;SDS011;73248;52.398;9.814;2024-03-02T13:30:52;10.25;;;4.28;;
30533;SDS011;73248;52.398;9.814;2024-03-02T13:33:18;6.47;;;4.28;;
30533;SDS011;73248;52.398;9.814;2024-03-02T13:35:47;6.40;;;4.13;;
30533;SDS011;73248;52.398;9.814;2024-03-02T13:38:15;8.75;;;4.18;;
30533;SDS011;73248;52.398;9.814;2024-03-02T13:40:44;10.70;;;4.10;;
30533;SDS011;73248;52.398;9.814;2024-03-02T13:43:10;5.03;;;3.13;;
30533;SDS011;73248;52.398;9.814;2024-03-02T13:45:37;5.65;;;3.03;;
30533;SDS011;73248;52.398;9.814;2024-03-02T13:48:03;5.32;;;3.00;;
30533;SDS011;73248;52.398;9.814;2024-03-02T13:50:29;4.78;;;2.72;;
30533;SDS011;73248;52.398;9.814;2024-03-02T13:52:55;4.20;;;2.33;;
30533;SDS011;73248;52.398;9.814;2024-03-02T13:55:21;5.15;;;2.47;;
30533;SDS011;73248;52.398;9.814;2024-03-02T13:57:47;5.43;;;2.88;;
30533;SDS011;73248;52.398;9.814;2024-03-02T14:00:15;5.85;;;2.47;;
30533;SDS011;73248;52.398;9.814;2024-03-02T14:02:42;4.88;;;2.50;;
30533;SDS011;73248;52.398;9.814;2024-03-02T14:05:08;5.53;;;2.20;;
30533;SDS011;73248;52.398;9.814;2024-03-02T14:07:37;3.05;;;2.15;;
30533;SDS011;73248;52.398;9.814;2024-03-02T14:10:03;4.55;;;2.35;;
30533;SDS011;73248;52.398;9.814;2024-03-02T14:12:29;5.00;;;2.35;;
30533;SDS011;73248;52.398;9.814;2024-03-02T14:14:55;2.75;;;1.95;;
30533;SDS011;73248;52.398;9.814;2024-03-02T14:17:23;6.90;;;2.28;;
30533;SDS011;73248;52.398;9.814;2024-03-02T14:19:49;3.45;;;2.58;;
30533;SDS011;73248;52.398;9.814;2024-03-02T14:22:16;3.75;;;2.28;;
30533;SDS011;73248;52.398;9.814;2024-03-02T14:24:42;4.53;;;2.40;;
30533;SDS011;73248;52.398;9.814;2024-03-02T14:27:09;4.25;;;2.95;;
30533;SDS011;73248;52.398;9.814;2024-03-02T14:29:34;4.47;;;2.83;;
30533;SDS011;73248;52.398;9.814;2024-03-02T14:34:28;4.25;;;2.35;;
30533;SDS011;73248;52.398;9.814;2024-03-02T14:36:54;5.07;;;2.55;;
30533;SDS011;73248;52.398;9.814;2024-03-02T14:39:20;5.38;;;2.85;;
30533;SDS011;73248;52.398;9.814;2024-03-02T14:41:46;4.95;;;2.92;;
30533;SDS011;73248;52.398;9.814;2024-03-02T14:44:12;4.07;;;2.85;;